createdAt,value
2018-07-12T14:49:44.312Z,91.11
2018-07-12T14:50:44.270Z,90.76
2018-07-12T14:51:44.233Z,90.76
2018-07-12T14:52:44.263Z,90.45
2018-07-12T14:53:44.204Z,90.66
2018-07-12T14:54:44.202Z,90.76
2018-07-12T14:56:57.311Z,89.61
2018-07-12T14:57:57.321Z,89.14
2018-07-12T14:58:57.278Z,89.45
2018-07-12T14:59:57.254Z,90.45
2018-07-12T15:00:57.216Z,89.50
2018-07-12T15:01:57.232Z,90.41
2018-07-12T15:02:57.347Z,89.61
2018-07-12T15:03:57.226Z,89.10
2018-07-12T15:04:57.166Z,88.90
2018-07-12T15:05:57.164Z,89.40
2018-07-12T15:06:57.171Z,89.91
2018-07-12T15:07:57.136Z,90.41
2018-07-12T15:08:57.160Z,90.67
2018-07-12T15:09:57.139Z,89.46
2018-07-12T15:12:08.573Z,88.35
2018-07-12T15:13:08.479Z,89.22
2018-07-12T15:14:08.464Z,89.42
2018-07-12T15:15:08.489Z,88.81
2018-07-12T15:16:08.451Z,87.10
2018-07-12T15:17:08.422Z,88.01
2018-07-12T15:18:08.405Z,90.12
2018-07-12T15:19:08.431Z,89.48
2018-07-12T15:20:08.428Z,88.67
2018-07-12T15:21:08.392Z,88.63
2018-07-12T15:22:08.355Z,87.82
2018-07-12T15:23:08.392Z,87.72
2018-07-12T15:24:08.362Z,86.67
2018-07-12T15:25:08.461Z,87.18
2018-07-12T15:26:08.337Z,87.23
2018-07-12T15:27:08.324Z,86.38
2018-07-12T15:28:08.315Z,84.71
2018-07-12T15:29:08.298Z,84.61
2018-07-12T15:30:08.316Z,85.52
2018-07-12T15:31:08.300Z,85.11
2018-07-12T15:32:08.283Z,86.02
2018-07-12T15:33:08.233Z,85.11
2018-07-12T15:34:08.235Z,85.72
2018-07-12T15:35:08.249Z,85.62
2018-07-12T15:36:08.206Z,85.22
2018-07-12T15:37:08.228Z,86.13
2018-07-12T15:38:08.176Z,86.08
2018-07-12T15:39:08.173Z,86.49
2018-07-12T15:41:21.683Z,82.79
2018-07-12T15:42:21.621Z,84.41
2018-07-12T15:43:21.690Z,84.45
2018-07-12T15:44:21.606Z,84.51
2018-07-12T15:45:21.606Z,85.72
2018-07-12T15:46:21.645Z,85.72
2018-07-12T15:47:21.566Z,86.22
2018-07-12T15:48:21.615Z,83.70
2018-07-12T15:49:21.583Z,84.71
2018-07-12T15:50:21.660Z,83.00
2018-07-12T15:51:21.525Z,84.01
2018-07-12T15:52:21.534Z,84.55
2018-07-12T15:53:21.508Z,85.36
2018-07-12T15:54:21.478Z,85.16
2018-07-12T15:55:21.460Z,84.85
2018-07-12T15:56:21.466Z,85.36
2018-07-12T15:57:21.457Z,84.55
2018-07-12T15:58:21.426Z,84.85
2018-07-12T15:59:21.411Z,85.56
2018-07-12T16:00:21.412Z,84.85
2018-07-12T16:01:21.406Z,85.16
2018-07-12T16:02:21.407Z,84.95
2018-07-12T16:03:21.362Z,86.47
2018-07-12T16:04:21.355Z,85.22
2018-07-12T16:05:21.425Z,86.13
2018-07-12T16:06:21.338Z,84.71
2018-07-12T16:07:21.323Z,84.41
2018-07-12T16:08:21.420Z,84.81
2018-07-12T16:09:21.297Z,84.81
2018-07-12T16:10:51.926Z,85.22
2018-07-12T16:11:21.309Z,84.47
2018-07-12T16:12:21.289Z,84.17
2018-07-12T16:13:21.282Z,83.80
2018-07-12T16:14:21.305Z,83.00
2018-07-12T16:15:22.106Z,83.60
2018-07-12T16:16:21.239Z,84.41
2018-07-12T16:17:21.216Z,84.31
2018-07-12T16:18:21.199Z,84.51
2018-07-12T16:19:21.231Z,84.21
2018-07-12T16:20:21.197Z,85.02
2018-07-12T16:21:21.171Z,83.40
2018-07-12T16:22:21.168Z,83.70
2018-07-12T16:23:21.188Z,84.51
2018-07-12T16:24:21.211Z,84.61
2018-07-12T16:26:32.762Z,84.81
2018-07-12T16:27:32.610Z,84.21
2018-07-12T16:28:32.667Z,83.60
2018-07-12T16:29:32.615Z,84.81
2018-07-12T16:30:32.605Z,83.60
2018-07-12T16:31:32.739Z,84.51
2018-07-12T16:32:32.536Z,84.31
2018-07-12T16:33:32.565Z,84.41
2018-07-12T16:34:32.605Z,83.00
2018-07-12T16:35:32.498Z,83.30
2018-07-12T16:36:32.491Z,82.59
2018-07-12T16:37:32.491Z,82.79
2018-07-12T16:38:32.467Z,82.50
2018-07-12T16:39:32.484Z,83.30
2018-07-12T16:41:42.786Z,83.30
2018-07-12T16:42:42.756Z,82.90
2018-07-12T16:43:42.714Z,83.00
2018-07-12T16:44:42.700Z,83.00
2018-07-12T16:45:42.717Z,82.79
2018-07-12T16:46:42.679Z,83.50
2018-07-12T16:48:53.834Z,83.87
2018-07-12T16:49:53.699Z,83.46
2018-07-12T16:50:53.701Z,82.65
2018-07-12T16:51:53.684Z,83.06
2018-07-12T16:52:53.698Z,82.76
2018-07-12T16:53:53.728Z,82.96
2018-07-12T16:54:53.672Z,82.96
2018-07-12T16:57:04.993Z,82.45
2018-07-12T16:58:04.908Z,83.36
2018-07-12T16:59:04.935Z,83.76
2018-07-12T17:00:04.882Z,83.60
2018-07-12T17:01:04.916Z,84.27
2018-07-12T17:02:04.946Z,83.56
2018-07-12T17:03:04.854Z,83.70
2018-07-12T17:04:04.846Z,84.27
2018-07-12T17:05:04.846Z,83.50
2018-07-12T17:06:04.819Z,83.80
2018-07-12T17:07:04.937Z,84.51
2018-07-12T17:08:04.874Z,83.80
2018-07-12T17:09:04.804Z,83.70
2018-07-12T17:10:04.778Z,84.51
2018-07-12T17:12:16.298Z,84.71
2018-07-12T17:13:16.226Z,84.41
2018-07-12T17:14:32.827Z,84.51
2018-07-12T17:15:16.247Z,84.61
2018-07-12T17:16:16.226Z,84.21
2018-07-12T17:17:16.197Z,84.41
2018-07-12T17:18:16.204Z,84.71
2018-07-12T17:19:16.151Z,84.71
2018-07-12T17:20:16.143Z,84.11
2018-07-12T17:21:16.177Z,84.61
2018-07-12T17:22:16.173Z,83.91
2018-07-12T17:23:16.112Z,84.51
2018-07-12T17:24:16.141Z,84.71
2018-07-12T17:25:16.080Z,84.61
2018-07-12T17:27:26.669Z,84.81
2018-07-12T17:28:26.607Z,84.31
2018-07-12T17:29:26.706Z,83.64
2018-07-12T17:30:26.634Z,83.70
2018-07-12T17:31:26.636Z,83.60
2018-07-12T17:32:26.687Z,84.61
2018-07-12T17:33:26.575Z,83.40
2018-07-12T17:34:26.527Z,84.15
2018-07-12T17:35:26.543Z,84.45
2018-07-12T17:36:26.498Z,84.55
2018-07-12T17:37:26.522Z,84.65
2018-07-12T17:38:26.531Z,85.56
2018-07-12T17:39:26.470Z,86.16
2018-07-12T17:40:26.457Z,86.27
2018-07-12T17:41:26.451Z,85.86
2018-07-12T17:42:26.464Z,86.21
2018-07-12T17:43:26.453Z,86.00
2018-07-12T17:44:26.424Z,86.51
2018-07-12T17:45:26.406Z,87.12
2018-07-12T17:46:26.413Z,88.06
2018-07-12T17:47:26.499Z,87.76
2018-07-12T17:48:26.418Z,88.67
2018-07-12T17:49:26.359Z,88.87
2018-07-12T17:50:26.397Z,88.71
2018-07-12T17:51:26.340Z,89.01
2018-07-12T17:52:26.318Z,88.92
2018-07-12T17:53:26.408Z,89.12
2018-07-12T17:54:26.345Z,88.61
2018-07-12T17:55:26.304Z,89.01
2018-07-12T17:56:26.292Z,88.92
2018-07-12T17:57:26.272Z,88.81
2018-07-12T17:58:26.301Z,88.75
2018-07-12T17:59:26.255Z,89.46
2018-07-12T18:00:26.237Z,88.75
2018-07-12T18:01:26.265Z,89.56
2018-07-12T18:02:26.213Z,89.26
2018-07-12T18:03:26.207Z,89.66
2018-07-12T18:04:26.225Z,90.47
2018-07-12T18:05:26.203Z,90.17
2018-07-12T18:06:26.174Z,89.97
2018-07-12T18:07:26.166Z,90.37
2018-07-12T18:08:26.153Z,90.37
2018-07-12T18:09:26.161Z,90.58
2018-07-12T18:10:26.161Z,90.88
2018-07-12T18:11:26.173Z,90.78
2018-07-12T18:12:26.131Z,91.18
2018-07-12T18:13:26.101Z,90.88
2018-07-12T18:14:26.259Z,91.58
2018-07-12T18:15:26.198Z,91.18
2018-07-12T18:16:26.072Z,90.63
2018-07-12T18:17:26.068Z,90.78
2018-07-12T18:18:26.185Z,91.03
2018-07-12T18:19:26.034Z,90.78
2018-07-12T18:20:26.069Z,90.63
2018-07-12T18:21:26.078Z,90.58
2018-07-12T18:22:26.104Z,89.62
2018-07-12T18:23:26.006Z,89.97
2018-07-12T18:24:26.556Z,90.07
2018-07-12T18:25:26.034Z,90.98
2018-07-12T18:26:26.048Z,90.33
2018-07-12T18:27:25.955Z,90.43
2018-07-12T18:28:25.957Z,90.07
2018-07-12T18:29:25.913Z,89.46
2018-07-12T18:30:25.915Z,89.56
2018-07-12T18:31:26.107Z,89.97
2018-07-12T18:32:25.889Z,89.36
2018-07-12T18:33:25.888Z,89.76
2018-07-12T18:34:25.859Z,89.36
2018-07-12T18:35:25.944Z,88.81
2018-07-12T18:36:25.827Z,88.96
2018-07-12T18:37:25.862Z,88.51
2018-07-12T18:38:25.820Z,89.06
2018-07-12T18:39:25.791Z,89.06
2018-07-12T18:40:25.782Z,88.85
2018-07-12T18:41:25.787Z,88.75
2018-07-12T18:42:25.761Z,89.36
2018-07-12T18:43:25.826Z,89.06
2018-07-12T18:44:25.742Z,89.56
2018-07-12T18:45:25.731Z,89.06
2018-07-12T18:46:25.720Z,88.96
2018-07-12T18:47:25.702Z,88.85
2018-07-12T18:48:25.707Z,89.16
2018-07-12T18:49:25.720Z,89.56
2018-07-12T18:50:25.674Z,90.17
2018-07-12T18:51:25.659Z,90.07
2018-07-12T18:52:25.657Z,89.46
2018-07-12T18:53:25.643Z,89.97
2018-07-12T18:54:25.633Z,89.87
2018-07-12T18:55:25.634Z,89.61
2018-07-12T18:56:25.602Z,89.06
2018-07-12T18:57:25.592Z,88.15
2018-07-12T18:58:25.593Z,89.06
2018-07-12T18:59:25.572Z,88.65
2018-07-12T19:00:25.560Z,88.65
2018-07-12T19:01:25.565Z,89.30
2018-07-12T19:02:25.594Z,88.90
2018-07-12T19:03:25.548Z,88.79
2018-07-12T19:04:25.514Z,88.79
2018-07-12T19:05:25.508Z,88.79
2018-07-12T19:06:25.491Z,89.40
2018-07-12T19:07:25.507Z,88.90
2018-07-12T19:08:25.481Z,89.00
2018-07-12T19:09:25.456Z,88.90
2018-07-12T19:10:25.448Z,89.10
2018-07-12T19:11:25.437Z,88.90
2018-07-12T19:12:25.446Z,88.90
2018-07-12T19:13:25.428Z,88.90
2018-07-12T19:14:25.414Z,88.79
2018-07-12T19:15:25.431Z,88.84
2018-07-12T19:16:25.381Z,88.79
2018-07-12T19:17:25.381Z,89.04
2018-07-12T19:18:25.365Z,88.84
2018-07-12T19:19:25.365Z,88.94
2018-07-12T19:20:25.335Z,88.84
2018-07-12T19:21:25.324Z,89.45
2018-07-12T19:22:25.324Z,89.54
2018-07-12T19:23:25.301Z,88.84
2018-07-12T19:24:25.289Z,89.65
2018-07-12T19:25:25.303Z,88.84
2018-07-12T19:26:25.312Z,89.65
2018-07-12T19:27:25.270Z,89.45
2018-07-12T19:28:25.240Z,88.74
2018-07-12T19:29:25.234Z,89.69
2018-07-12T19:30:25.217Z,89.79
2018-07-12T19:31:25.225Z,89.79
2018-07-12T19:32:25.211Z,89.39
2018-07-12T19:33:25.187Z,89.39
2018-07-12T19:34:25.188Z,89.99
2018-07-12T19:35:25.166Z,90.20
2018-07-12T19:36:25.155Z,89.89
2018-07-12T19:37:25.163Z,89.89
2018-07-12T19:38:25.222Z,89.69
2018-07-12T19:39:25.180Z,90.50
2018-07-12T19:40:25.109Z,90.75
2018-07-12T19:41:25.112Z,90.14
2018-07-12T19:42:25.090Z,90.84
2018-07-12T19:43:26.250Z,90.24
2018-07-12T19:44:25.127Z,90.09
2018-07-12T19:45:25.054Z,90.24
2018-07-12T19:46:25.046Z,89.99
2018-07-12T19:47:25.034Z,90.03
2018-07-12T19:48:25.029Z,89.94
2018-07-12T19:49:25.045Z,90.84
2018-07-12T19:50:25.003Z,89.94
2018-07-12T19:51:24.988Z,90.14
2018-07-12T19:52:24.983Z,90.14
2018-07-12T19:53:24.970Z,89.94
2018-07-12T19:54:24.955Z,90.34
2018-07-12T19:55:24.987Z,89.63
2018-07-12T19:56:25.028Z,89.83
2018-07-12T19:57:24.925Z,89.63
2018-07-12T19:58:24.902Z,90.03
2018-07-12T19:59:24.903Z,89.53
2018-07-12T20:00:24.936Z,89.43
2018-07-12T20:01:24.880Z,89.57
2018-07-12T20:02:24.873Z,90.03
2018-07-12T20:03:24.875Z,89.43
2018-07-12T20:04:24.837Z,89.73
2018-07-12T20:05:24.846Z,89.87
2018-07-12T20:06:24.825Z,89.94
2018-07-12T20:07:24.809Z,89.37
2018-07-12T20:08:24.823Z,89.43
2018-07-12T20:09:24.795Z,89.73
2018-07-12T20:10:24.790Z,89.87
2018-07-12T20:11:24.765Z,89.26
2018-07-12T20:12:24.755Z,89.77
2018-07-12T20:13:24.741Z,90.03
2018-07-12T20:14:24.752Z,89.87
2018-07-12T20:15:24.728Z,89.77
2018-07-12T20:16:24.721Z,89.77
2018-07-12T20:17:24.707Z,89.57
2018-07-12T20:18:24.686Z,89.77
2018-07-12T20:19:24.676Z,89.26
2018-07-12T20:20:24.704Z,89.47
2018-07-12T20:21:24.659Z,89.81
2018-07-12T20:22:24.646Z,89.81
2018-07-12T20:23:24.636Z,89.31
2018-07-12T20:24:24.634Z,89.72
2018-07-12T20:25:24.678Z,89.92
2018-07-12T20:26:24.725Z,89.72
2018-07-12T20:27:24.582Z,89.92
2018-07-12T20:28:24.573Z,90.12
2018-07-12T20:29:24.574Z,90.02
2018-07-12T20:30:24.567Z,89.92
2018-07-12T20:31:24.534Z,89.61
2018-07-12T20:32:24.548Z,89.65
2018-07-12T20:33:24.524Z,89.35
2018-07-12T20:34:24.500Z,89.35
2018-07-12T20:35:24.513Z,89.76
2018-07-12T20:36:24.482Z,89.65
2018-07-12T20:37:24.470Z,89.35
2018-07-12T20:38:24.478Z,89.25
2018-07-12T20:39:24.450Z,89.25
2018-07-12T20:40:24.456Z,89.11
2018-07-12T20:41:24.426Z,89.15
2018-07-12T20:42:24.416Z,89.25
2018-07-12T20:43:24.418Z,89.25
2018-07-12T20:44:24.418Z,89.35
2018-07-12T20:45:24.383Z,88.95
2018-07-12T20:46:24.410Z,88.64
2018-07-12T20:47:24.363Z,88.34
2018-07-12T20:48:24.353Z,88.64
2018-07-12T20:49:24.344Z,89.45
2018-07-12T20:50:24.351Z,88.64
2018-07-12T20:51:24.320Z,88.13
2018-07-12T20:52:24.315Z,89.25
2018-07-12T20:53:24.294Z,88.44
2018-07-12T20:54:24.299Z,89.25
2018-07-12T20:55:24.275Z,89.15
2018-07-12T20:56:24.291Z,89.35
2018-07-12T20:57:24.257Z,89.15
2018-07-12T20:58:24.244Z,88.18
2018-07-12T20:59:24.237Z,89.04
2018-07-12T21:00:24.212Z,88.03
2018-07-12T21:01:24.210Z,88.64
2018-07-12T21:02:24.235Z,87.93
2018-07-12T21:03:24.182Z,88.54
2018-07-12T21:04:24.173Z,88.13
2018-07-12T21:05:24.167Z,88.34
2018-07-12T21:06:24.153Z,88.64
2018-07-12T21:07:24.208Z,89.25
2018-07-12T21:08:24.163Z,88.54
2018-07-12T21:09:24.115Z,88.54
2018-07-12T21:10:24.103Z,88.44
2018-07-12T21:11:24.093Z,88.58
2018-07-12T21:12:24.083Z,88.64
2018-07-12T21:13:24.082Z,88.03
2018-07-12T21:14:24.099Z,88.23
2018-07-12T21:15:24.051Z,88.20
2018-07-12T21:16:24.033Z,88.34
2018-07-12T21:17:24.026Z,88.54
2018-07-12T21:18:24.014Z,88.20
2018-07-12T21:19:24.032Z,88.09
2018-07-12T21:20:23.998Z,88.09
2018-07-12T21:21:23.972Z,88.40
2018-07-12T21:22:23.966Z,87.38
2018-07-12T21:23:23.961Z,87.38
2018-07-12T21:24:23.957Z,87.59
2018-07-12T21:25:23.941Z,87.28
2018-07-12T21:26:23.937Z,87.18
2018-07-12T21:27:23.922Z,86.98
2018-07-12T21:28:23.901Z,87.28
2018-07-12T21:29:23.895Z,87.18
2018-07-12T21:30:23.907Z,86.98
2018-07-12T21:31:23.869Z,86.98
2018-07-12T21:32:23.886Z,86.68
2018-07-12T21:33:23.920Z,86.77
2018-07-12T21:34:23.834Z,86.77
2018-07-12T21:35:23.822Z,87.54
2018-07-12T21:36:23.827Z,86.16
2018-07-12T21:37:23.803Z,86.47
2018-07-12T21:38:23.823Z,87.18
2018-07-12T21:39:23.782Z,86.77
2018-07-12T21:40:23.772Z,86.77
2018-07-12T21:41:23.791Z,86.68
2018-07-12T21:42:23.752Z,86.57
2018-07-12T21:43:23.731Z,86.68
2018-07-12T21:44:23.757Z,86.07
2018-07-12T21:45:23.707Z,86.27
2018-07-12T21:46:23.695Z,86.77
2018-07-12T21:47:23.705Z,86.57
2018-07-12T21:48:23.673Z,86.47
2018-07-12T21:49:23.664Z,86.88
2018-07-12T21:50:23.661Z,86.57
2018-07-12T21:51:23.646Z,86.47
2018-07-12T21:52:23.673Z,86.77
2018-07-12T21:53:23.628Z,86.57
2018-07-12T21:54:23.612Z,86.16
2018-07-12T21:55:23.600Z,87.28
2018-07-12T21:56:23.580Z,87.02
2018-07-12T21:57:23.577Z,86.61
2018-07-12T21:58:23.598Z,86.61
2018-07-12T21:59:23.552Z,86.61
2018-07-12T22:00:23.546Z,86.82
2018-07-12T22:01:23.537Z,87.02
2018-07-12T22:02:23.523Z,87.22
2018-07-12T22:03:23.513Z,87.02
2018-07-12T22:04:23.514Z,87.22
2018-07-12T22:05:23.500Z,87.22
2018-07-12T22:06:23.475Z,87.43
2018-07-12T22:07:23.461Z,87.16
2018-07-12T22:08:23.467Z,87.06
2018-07-12T22:09:23.471Z,87.16
2018-07-12T22:10:23.434Z,88.28
2018-07-12T22:11:23.604Z,87.16
2018-07-12T22:12:23.404Z,87.37
2018-07-12T22:13:23.399Z,87.67
2018-07-12T22:14:23.383Z,87.37
2018-07-12T22:15:23.454Z,87.67
2018-07-12T22:16:23.369Z,87.46
2018-07-12T22:17:23.367Z,87.67
2018-07-12T22:18:23.338Z,87.87
2018-07-12T22:19:23.323Z,87.51
2018-07-12T22:20:23.318Z,87.71
2018-07-12T22:21:23.319Z,87.71
2018-07-12T22:22:23.295Z,87.61
2018-07-12T22:23:23.308Z,87.20
2018-07-12T22:24:23.279Z,87.37
2018-07-12T22:25:23.269Z,88.32
2018-07-12T22:26:23.261Z,87.61
2018-07-12T22:27:23.237Z,87.40
2018-07-12T22:28:23.224Z,87.71
2018-07-12T22:29:23.241Z,87.61
2018-07-12T22:30:23.209Z,87.51
2018-07-12T22:31:23.219Z,88.32
2018-07-12T22:32:23.193Z,87.61
2018-07-12T22:33:23.176Z,88.52
2018-07-12T22:34:23.163Z,88.32
2018-07-12T22:35:23.170Z,87.81
2018-07-12T22:36:23.133Z,88.52
2018-07-12T22:37:23.146Z,87.71
2018-07-12T22:38:23.116Z,87.71
2018-07-12T22:39:23.101Z,88.32
2018-07-12T22:40:23.096Z,87.51
2018-07-12T22:41:23.098Z,88.42
2018-07-12T22:42:23.077Z,88.12
2018-07-12T22:43:23.076Z,88.42
2018-07-12T22:44:23.055Z,88.62
2018-07-12T22:45:23.038Z,88.52
2018-07-12T22:46:23.027Z,88.62
2018-07-12T22:47:23.032Z,88.21
2018-07-12T22:48:23.132Z,88.42
2018-07-12T22:49:22.996Z,88.42
2018-07-12T22:50:23.005Z,87.71
2018-07-12T22:51:22.965Z,87.92
2018-07-12T22:52:22.954Z,88.42
2018-07-12T22:53:22.962Z,88.62
2018-07-12T22:54:22.955Z,88.32
2018-07-12T22:55:22.926Z,88.12
2018-07-12T22:56:22.917Z,87.92
2018-07-12T22:57:22.905Z,88.56
2018-07-12T22:58:22.905Z,87.92
2018-07-12T22:59:22.885Z,87.85
2018-07-12T23:00:22.868Z,88.52
2018-07-12T23:01:22.862Z,88.26
2018-07-12T23:02:22.850Z,88.36
2018-07-12T23:03:22.837Z,88.26
2018-07-12T23:04:22.880Z,88.76
2018-07-12T23:05:22.822Z,88.26
2018-07-12T23:06:22.802Z,88.56
2018-07-12T23:07:22.790Z,88.06
2018-07-12T23:08:22.777Z,88.26
2018-07-12T23:09:22.770Z,88.56
2018-07-12T23:10:22.778Z,88.36
2018-07-12T23:11:22.741Z,88.26
2018-07-12T23:12:22.736Z,88.56
2018-07-12T23:13:22.725Z,88.40
2018-07-12T23:14:22.775Z,87.95
2018-07-12T23:15:22.721Z,88.06
2018-07-12T23:16:22.724Z,88.06
2018-07-12T23:17:22.676Z,88.20
2018-07-12T23:18:22.664Z,88.20
2018-07-12T23:19:22.654Z,88.10
2018-07-12T23:20:22.646Z,88.20
2018-07-12T23:21:22.644Z,88.60
2018-07-12T23:22:22.644Z,88.60
2018-07-12T23:23:22.611Z,89.62
2018-07-12T23:24:22.600Z,89.31
2018-07-12T23:25:22.604Z,89.42
2018-07-12T23:26:22.598Z,89.42
2018-07-12T23:27:22.570Z,89.36
2018-07-12T23:28:22.577Z,89.46
2018-07-12T23:29:22.542Z,89.11
2018-07-12T23:30:22.533Z,89.15
2018-07-12T23:31:22.522Z,89.26
2018-07-12T23:32:22.543Z,89.56
2018-07-12T23:33:22.502Z,89.46
2018-07-12T23:34:22.514Z,89.26
2018-07-12T23:35:22.475Z,89.56
2018-07-12T23:36:22.464Z,89.87
2018-07-12T23:37:22.449Z,89.56
2018-07-12T23:38:22.448Z,90.31
2018-07-12T23:39:22.428Z,90.27
2018-07-12T23:40:22.437Z,90.11
2018-07-12T23:41:22.404Z,90.22
2018-07-12T23:42:22.418Z,90.31
2018-07-12T23:43:22.392Z,90.42
2018-07-12T23:44:22.372Z,91.03
2018-07-12T23:45:22.374Z,90.83
2018-07-12T23:46:22.371Z,90.88
2018-07-12T23:47:22.339Z,90.92
2018-07-12T23:48:22.346Z,90.42
2018-07-12T23:49:22.316Z,90.42
2018-07-12T23:50:22.306Z,90.88
2018-07-12T23:51:22.299Z,90.99
2018-07-12T23:52:22.294Z,90.78
2018-07-12T23:53:22.293Z,91.60
2018-07-12T23:54:22.257Z,90.48
2018-07-12T23:55:22.248Z,90.88
2018-07-12T23:56:22.239Z,90.07
2018-07-12T23:57:22.231Z,90.13
2018-07-12T23:58:22.239Z,89.97
2018-07-12T23:59:22.225Z,90.27
